Stations météo

réclame
Mon MeteoGroup
Lentran, Grande-Bretagne (99125): Température de l'air & dewpoint: 10.08.2018 09:00:00 - 16.08.2018 09:00:00 (BST)Lentran, Grande-Bretagne (99125): Quantités de précipitations: 10.08.2018 09:00:00 - 16.08.2018 09:00:00 (BST)
Date & Time tt [°C] td [°C] rr [mm]
16.08.2018 09:00:00 - - -
16.08.2018 08:00:00 12,4 9,0 0,0
16.08.2018 07:00:00 10,1 8,7 0,0
16.08.2018 06:00:00 9,5 7,9 0,0
16.08.2018 05:00:00 11,2 7,9 0,0
16.08.2018 04:00:00 10,7 7,9 0,0
16.08.2018 03:00:00 11,4 7,8 0,0
16.08.2018 02:00:00 10,9 8,1 0,0
16.08.2018 01:00:00 12,1 8,7 0,0
16.08.2018 00:00:00 12,5 8,9 0,0
15.08.2018 23:00:00 13,1 9,2 0,0
15.08.2018 22:00:00 12,9 9,5 0,0
15.08.2018 21:00:00 12,8 9,3 0,0
15.08.2018 20:00:00 13,7 8,7 0,0
15.08.2018 19:00:00 16,1 9,0 0,0
15.08.2018 18:00:00 15,7 9,6 0,0
15.08.2018 17:00:00 15,3 11,1 0,0
15.08.2018 16:00:00 14,2 10,4 0,4
15.08.2018 15:00:00 14,7 10,5 0,0
15.08.2018 14:00:00 16,7 9,2 0,0
15.08.2018 13:00:00 16,6 10,1 0,0
15.08.2018 12:00:00 16,5 9,1 0,0
15.08.2018 11:00:00 17,8 12,7 0,0
15.08.2018 10:00:00 16,5 12,4 0,0
15.08.2018 09:00:00 16,0 13,9 0,0
15.08.2018 08:00:00 14,2 13,7 0,0
15.08.2018 07:00:00 12,6 12,2 0,0
15.08.2018 06:00:00 12,8 12,3 0,2
15.08.2018 05:00:00 13,2 12,0 0,0
15.08.2018 04:00:00 13,3 11,9 0,0
15.08.2018 03:00:00 12,2 10,9 0,0
15.08.2018 02:00:00 12,4 10,8 0,0
15.08.2018 01:00:00 12,8 10,6 0,0
15.08.2018 00:00:00 12,4 10,2 0,0
14.08.2018 23:00:00 11,9 10,0 0,0
14.08.2018 22:00:00 14,0 10,2 0,0
14.08.2018 21:00:00 14,6 10,6 0,0
14.08.2018 20:00:00 16,2 11,4 0,0
14.08.2018 19:00:00 17,6 12,2 0,0
14.08.2018 18:00:00 18,9 12,1 0,0
14.08.2018 17:00:00 19,1 14,5 0,0
14.08.2018 16:00:00 20,0 15,1 0,0
14.08.2018 15:00:00 19,5 15,7 0,0
14.08.2018 14:00:00 17,3 15,0 0,0
14.08.2018 13:00:00 16,9 15,0 0,0
14.08.2018 12:00:00 13,8 13,3 4,4
14.08.2018 11:00:00 13,9 13,0 2,2
14.08.2018 10:00:00 14,4 12,9 0,0
14.08.2018 09:00:00 14,9 13,1 0,0
14.08.2018 08:00:00 13,9 12,4 0,0
14.08.2018 07:00:00 13,0 11,9 0,0
14.08.2018 06:00:00 12,7 11,8 0,0
14.08.2018 05:00:00 12,4 11,7 0,0
14.08.2018 04:00:00 11,9 11,2 0,0
14.08.2018 03:00:00 12,5 11,7 0,0
14.08.2018 02:00:00 12,8 12,0 0,0
14.08.2018 01:00:00 13,0 12,4 0,0
14.08.2018 00:00:00 13,4 13,1 0,0
13.08.2018 23:00:00 13,6 13,3 0,2
13.08.2018 22:00:00 13,9 13,7 0,2
13.08.2018 21:00:00 14,0 13,7 0,0
13.08.2018 20:00:00 14,7 13,8 1,2
13.08.2018 19:00:00 15,3 13,9 0,0
13.08.2018 18:00:00 15,7 13,5 0,0
13.08.2018 17:00:00 15,8 14,4 0,0
13.08.2018 16:00:00 14,9 13,6 0,0
13.08.2018 15:00:00 14,8 13,5 0,0
13.08.2018 14:00:00 14,4 13,6 0,0
13.08.2018 13:00:00 13,6 12,9 0,0
13.08.2018 12:00:00 13,5 13,0 0,0
13.08.2018 11:00:00 13,1 12,9 0,0
13.08.2018 10:00:00 12,4 12,1 0,4
13.08.2018 09:00:00 12,3 12,1 0,0
13.08.2018 08:00:00 12,0 11,9 0,0
13.08.2018 07:00:00 11,7 11,6 0,2
13.08.2018 06:00:00 11,7 11,5 0,0
13.08.2018 05:00:00 11,8 11,6 0,0
13.08.2018 04:00:00 11,8 11,6 0,8
13.08.2018 03:00:00 11,8 11,6 0,0
13.08.2018 02:00:00 11,7 11,5 0,4
13.08.2018 01:00:00 11,7 11,5 1,4
13.08.2018 00:00:00 11,8 11,5 1,2
12.08.2018 23:00:00 12,0 11,7 0,4
12.08.2018 22:00:00 12,1 11,8 1,0
12.08.2018 21:00:00 12,2 11,8 0,2
12.08.2018 20:00:00 12,4 11,8 0,4
12.08.2018 19:00:00 12,7 12,3 1,4
12.08.2018 18:00:00 13,0 12,1 0,6
12.08.2018 17:00:00 14,0 12,4 0,2
12.08.2018 16:00:00 14,8 11,3 0,0
12.08.2018 15:00:00 15,1 11,0 0,0
12.08.2018 14:00:00 14,7 10,8 0,0
12.08.2018 13:00:00 14,9 11,0 0,0
12.08.2018 12:00:00 14,4 10,5 0,0
12.08.2018 11:00:00 14,6 10,9 0,0
12.08.2018 10:00:00 13,7 11,2 0,0
12.08.2018 09:00:00 12,4 10,5 0,0
12.08.2018 08:00:00 11,4 10,3 0,0
12.08.2018 07:00:00 10,5 10,3 0,0
12.08.2018 06:00:00 9,5 9,3 0,0
12.08.2018 05:00:00 8,9 8,5 0,0
12.08.2018 04:00:00 9,9 9,2 0,0
12.08.2018 03:00:00 11,3 10,3 0,0
12.08.2018 02:00:00 11,5 10,5 0,0
12.08.2018 01:00:00 11,7 10,4 0,0
12.08.2018 00:00:00 11,6 10,0 0,0
11.08.2018 23:00:00 11,6 9,4 0,0
11.08.2018 22:00:00 12,1 8,8 0,0
11.08.2018 21:00:00 12,5 8,9 0,0
11.08.2018 20:00:00 13,5 8,1 0,0
11.08.2018 19:00:00 15,0 8,0 0,0
11.08.2018 18:00:00 16,2 6,5 0,0
11.08.2018 17:00:00 16,6 6,5 0,0
11.08.2018 16:00:00 16,0 7,5 0,0
11.08.2018 15:00:00 15,9 7,1 0,0
11.08.2018 14:00:00 15,3 7,7 0,0
11.08.2018 13:00:00 13,4 10,3 0,0
11.08.2018 12:00:00 15,1 9,0 0,0
11.08.2018 11:00:00 14,1 9,0 0,0
11.08.2018 10:00:00 14,1 9,5 0,0
11.08.2018 09:00:00 12,4 8,7 0,0
11.08.2018 08:00:00 11,4 9,2 0,0
11.08.2018 07:00:00 9,3 8,7 0,0
11.08.2018 06:00:00 8,3 7,7 0,0
11.08.2018 05:00:00 9,1 8,6 0,0
11.08.2018 04:00:00 9,3 9,0 0,0
11.08.2018 03:00:00 9,5 9,1 0,2
11.08.2018 02:00:00 9,2 8,6 0,0
11.08.2018 01:00:00 9,9 9,3 0,0
11.08.2018 00:00:00 10,3 9,8 0,0
10.08.2018 23:00:00 10,4 10,0 0,0
10.08.2018 22:00:00 10,5 10,0 0,0
10.08.2018 21:00:00 10,9 10,5 0,0
10.08.2018 20:00:00 11,3 10,8 1,4
10.08.2018 19:00:00 11,8 11,0 0,0
10.08.2018 18:00:00 12,8 10,9 3,2
10.08.2018 17:00:00 14,9 11,3 1,0
10.08.2018 16:00:00 15,0 10,2 0,0
10.08.2018 15:00:00 17,1 10,5 0,2
10.08.2018 14:00:00 14,8 10,1 0,0
10.08.2018 13:00:00 15,9 7,6 0,0
10.08.2018 12:00:00 13,8 8,9 0,0
10.08.2018 11:00:00 14,8 9,2 0,0
10.08.2018 10:00:00 12,7 9,6 0,0
10.08.2018 09:00:00 9,7 8,4 0,0

tt = Température de l'air
td = dewpoint
rr = Quantités de précipitations

stations d'obs. à proximité